sensor_id;sensor_type;location;lat;lon;timestamp;pressure;altitude;pressure_sealevel;temperature;humidity
13124;BME280;6627;50.920;12.050;2023-08-21T00:01:08;100056.28;;;34.36;44.95
13124;BME280;6627;50.920;12.050;2023-08-21T00:03:36;100038.34;;;34.07;45.27
13124;BME280;6627;50.920;12.050;2023-08-21T00:06:03;100051.31;;;34.01;45.66
13124;BME280;6627;50.920;12.050;2023-08-21T00:08:30;100053.63;;;34.06;45.78
13124;BME280;6627;50.920;12.050;2023-08-21T00:10:59;100048.47;;;34.24;45.33
13124;BME280;6627;50.920;12.050;2023-08-21T00:13:26;100035.53;;;33.83;46.02
13124;BME280;6627;50.920;12.050;2023-08-21T00:15:53;100030.00;;;33.76;45.78
13124;BME280;6627;50.920;12.050;2023-08-21T00:18:21;100010.06;;;32.55;48.27
13124;BME280;6627;50.920;12.050;2023-08-21T00:20:48;100061.09;;;33.38;47.28
13124;BME280;6627;50.920;12.050;2023-08-21T00:23:16;100050.81;;;33.28;47.53
13124;BME280;6627;50.920;12.050;2023-08-21T00:25:47;100036.59;;;33.89;46.00
13124;BME280;6627;50.920;12.050;2023-08-21T00:28:16;99995.28;;;33.39;46.08
13124;BME280;6627;50.920;12.050;2023-08-21T00:30:43;100052.69;;;33.38;47.09
13124;BME280;6627;50.920;12.050;2023-08-21T00:33:10;100014.28;;;33.01;47.27
13124;BME280;6627;50.920;12.050;2023-08-21T00:35:37;100026.59;;;33.88;45.45
13124;BME280;6627;50.920;12.050;2023-08-21T00:38:05;100014.63;;;32.76;47.58
13124;BME280;6627;50.920;12.050;2023-08-21T00:40:32;100019.56;;;32.65;47.81
13124;BME280;6627;50.920;12.050;2023-08-21T00:42:59;100040.75;;;33.04;47.54
13124;BME280;6627;50.920;12.050;2023-08-21T00:45:28;100033.75;;;33.43;46.68
13124;BME280;6627;50.920;12.050;2023-08-21T00:47:55;100017.66;;;33.47;46.15
13124;BME280;6627;50.920;12.050;2023-08-21T00:50:23;100015.53;;;32.66;47.38
13124;BME280;6627;50.920;12.050;2023-08-21T00:52:51;100044.50;;;33.75;46.11
13124;BME280;6627;50.920;12.050;2023-08-21T00:55:18;99992.00;;;33.45;45.85
13124;BME280;6627;50.920;12.050;2023-08-21T00:57:46;100014.69;;;33.57;45.67
13124;BME280;6627;50.920;12.050;2023-08-21T01:00:15;99991.09;;;33.24;45.95
13124;BME280;6627;50.920;12.050;2023-08-21T01:02:43;99987.28;;;32.80;46.82
13124;BME280;6627;50.920;12.050;2023-08-21T01:05:11;99986.25;;;32.98;46.36
13124;BME280;6627;50.920;12.050;2023-08-21T01:07:55;99985.69;;;32.79;46.73
13124;BME280;6627;50.920;12.050;2023-08-21T01:10:38;99979.44;;;32.37;47.60
13124;BME280;6627;50.920;12.050;2023-08-21T01:13:19;100011.34;;;32.81;47.09
13124;BME280;6627;50.920;12.050;2023-08-21T01:15:50;100005.75;;;33.35;45.69
13124;BME280;6627;50.920;12.050;2023-08-21T01:18:21;99969.38;;;33.01;46.39
13124;BME280;6627;50.920;12.050;2023-08-21T01:20:49;100005.53;;;32.65;47.37
13124;BME280;6627;50.920;12.050;2023-08-21T01:23:34;100001.19;;;32.60;47.29
13124;BME280;6627;50.920;12.050;2023-08-21T01:26:02;100035.00;;;32.50;48.22
13124;BME280;6627;50.920;12.050;2023-08-21T01:28:31;99985.53;;;32.63;47.07
13124;BME280;6627;50.920;12.050;2023-08-21T01:31:07;100013.94;;;32.65;47.28
13124;BME280;6627;50.920;12.050;2023-08-21T01:33:44;100016.41;;;32.63;47.58
13124;BME280;6627;50.920;12.050;2023-08-21T01:36:14;100017.22;;;33.21;46.34
13124;BME280;6627;50.920;12.050;2023-08-21T01:38:44;99962.66;;;32.64;46.71
13124;BME280;6627;50.920;12.050;2023-08-21T01:41:11;100007.97;;;32.25;47.86
13124;BME280;6627;50.920;12.050;2023-08-21T01:43:39;99988.59;;;32.42;47.42
13124;BME280;6627;50.920;12.050;2023-08-21T01:46:06;100008.72;;;32.29;47.66
13124;BME280;6627;50.920;12.050;2023-08-21T01:48:34;100004.13;;;32.50;46.92
13124;BME280;6627;50.920;12.050;2023-08-21T01:51:02;100001.88;;;32.68;47.03
13124;BME280;6627;50.920;12.050;2023-08-21T01:53:29;100019.81;;;33.08;46.48
13124;BME280;6627;50.920;12.050;2023-08-21T01:55:57;100018.72;;;33.29;45.72
13124;BME280;6627;50.920;12.050;2023-08-21T01:58:25;99975.88;;;32.30;47.45
13124;BME280;6627;50.920;12.050;2023-08-21T02:00:52;100013.00;;;32.75;46.58
13124;BME280;6627;50.920;12.050;2023-08-21T02:03:19;99994.03;;;33.17;45.59
13124;BME280;6627;50.920;12.050;2023-08-21T02:05:47;100002.03;;;33.93;44.13
13124;BME280;6627;50.920;12.050;2023-08-21T02:08:15;99951.75;;;33.24;44.81
13124;BME280;6627;50.920;12.050;2023-08-21T02:10:49;99953.00;;;32.31;46.60
13124;BME280;6627;50.920;12.050;2023-08-21T02:13:19;99953.97;;;31.83;47.17
13124;BME280;6627;50.920;12.050;2023-08-21T02:15:46;99952.09;;;31.66;47.90
13124;BME280;6627;50.920;12.050;2023-08-21T02:18:14;99972.41;;;31.77;47.99
13124;BME280;6627;50.920;12.050;2023-08-21T02:20:41;99995.06;;;32.31;47.41
13124;BME280;6627;50.920;12.050;2023-08-21T02:23:09;99948.41;;;31.76;47.53
13124;BME280;6627;50.920;12.050;2023-08-21T02:25:36;100002.19;;;32.05;47.87
13124;BME280;6627;50.920;12.050;2023-08-21T02:28:04;100009.09;;;32.69;46.52
13124;BME280;6627;50.920;12.050;2023-08-21T02:30:33;99968.03;;;32.52;46.39
13124;BME280;6627;50.920;12.050;2023-08-21T02:33:01;100020.31;;;32.69;46.80
13124;BME280;6627;50.920;12.050;2023-08-21T02:35:28;99954.03;;;32.48;46.14
13124;BME280;6627;50.920;12.050;2023-08-21T02:37:55;99999.84;;;33.03;45.97
13124;BME280;6627;50.920;12.050;2023-08-21T02:40:22;99973.97;;;33.15;45.10
13124;BME280;6627;50.920;12.050;2023-08-21T02:42:49;99972.88;;;33.09;45.33
13124;BME280;6627;50.920;12.050;2023-08-21T02:45:17;99962.97;;;32.39;46.54
13124;BME280;6627;50.920;12.050;2023-08-21T02:47:46;99969.78;;;32.35;46.69
13124;BME280;6627;50.920;12.050;2023-08-21T02:50:13;99995.06;;;33.00;45.45
13124;BME280;6627;50.920;12.050;2023-08-21T02:52:41;99958.03;;;33.08;45.20
13124;BME280;6627;50.920;12.050;2023-08-21T02:55:08;99939.09;;;32.58;45.54
13124;BME280;6627;50.920;12.050;2023-08-21T02:57:36;99953.16;;;32.55;45.90
13124;BME280;6627;50.920;12.050;2023-08-21T03:00:05;99958.31;;;32.22;46.35
13124;BME280;6627;50.920;12.050;2023-08-21T03:02:32;99949.56;;;32.20;46.51
13124;BME280;6627;50.920;12.050;2023-08-21T03:05:01;99973.84;;;32.68;45.98
13124;BME280;6627;50.920;12.050;2023-08-21T03:07:29;99922.59;;;31.96;46.34
13124;BME280;6627;50.920;12.050;2023-08-21T03:09:56;99943.75;;;31.59;47.63
13124;BME280;6627;50.920;12.050;2023-08-21T03:12:24;99992.31;;;31.90;47.47
13124;BME280;6627;50.920;12.050;2023-08-21T03:14:51;99980.16;;;31.59;47.90
13124;BME280;6627;50.920;12.050;2023-08-21T03:17:18;99990.56;;;32.07;47.27
13124;BME280;6627;50.920;12.050;2023-08-21T03:19:46;99953.25;;;32.48;45.92
13124;BME280;6627;50.920;12.050;2023-08-21T03:22:15;99958.19;;;32.36;46.47
13124;BME280;6627;50.920;12.050;2023-08-21T03:24:42;99931.91;;;32.23;45.63
13124;BME280;6627;50.920;12.050;2023-08-21T03:27:10;99993.28;;;32.52;45.97
13124;BME280;6627;50.920;12.050;2023-08-21T03:29:37;99910.28;;;32.20;45.93
13124;BME280;6627;50.920;12.050;2023-08-21T03:32:05;99942.25;;;32.26;45.74
13124;BME280;6627;50.920;12.050;2023-08-21T03:34:32;99932.06;;;31.68;46.72
13124;BME280;6627;50.920;12.050;2023-08-21T03:37:00;99950.47;;;32.10;46.37
13124;BME280;6627;50.920;12.050;2023-08-21T03:39:28;99922.06;;;31.70;46.32
13124;BME280;6627;50.920;12.050;2023-08-21T03:41:56;99930.97;;;31.58;46.86
13124;BME280;6627;50.920;12.050;2023-08-21T03:44:24;99937.19;;;31.76;46.45
13124;BME280;6627;50.920;12.050;2023-08-21T03:46:51;99951.78;;;31.57;47.46
13124;BME280;6627;50.920;12.050;2023-08-21T03:49:19;99971.41;;;31.98;46.59
13124;BME280;6627;50.920;12.050;2023-08-21T03:51:46;99974.75;;;31.82;47.35
13124;BME280;6627;50.920;12.050;2023-08-21T03:54:13;99978.31;;;32.28;46.18
13124;BME280;6627;50.920;12.050;2023-08-21T03:56:42;99928.38;;;32.50;44.83
13124;BME280;6627;50.920;12.050;2023-08-21T03:59:09;99920.38;;;32.14;45.59
13124;BME280;6627;50.920;12.050;2023-08-21T04:01:37;99926.44;;;32.09;45.84
13124;BME280;6627;50.920;12.050;2023-08-21T04:04:05;99940.47;;;31.68;46.42
13124;BME280;6627;50.920;12.050;2023-08-21T04:06:34;99940.00;;;31.31;47.43
13124;BME280;6627;50.920;12.050;2023-08-21T04:09:02;99978.91;;;31.67;46.61
13124;BME280;6627;50.920;12.050;2023-08-21T04:11:33;99908.09;;;31.18;46.96
13124;BME280;6627;50.920;12.050;2023-08-21T04:14:03;99946.84;;;31.20;47.80
13124;BME280;6627;50.920;12.050;2023-08-21T04:16:30;99911.84;;;30.20;49.38
13124;BME280;6627;50.920;12.050;2023-08-21T04:18:57;99942.00;;;30.61;48.97
13124;BME280;6627;50.920;12.050;2023-08-21T04:21:38;99992.78;;;31.29;48.54
13124;BME280;6627;50.920;12.050;2023-08-21T04:24:06;99973.81;;;31.55;47.37
13124;BME280;6627;50.920;12.050;2023-08-21T04:26:33;99976.16;;;32.05;46.50
13124;BME280;6627;50.920;12.050;2023-08-21T04:29:00;99953.69;;;32.08;45.70
13124;BME280;6627;50.920;12.050;2023-08-21T04:31:29;99974.53;;;32.07;46.37
13124;BME280;6627;50.920;12.050;2023-08-21T04:33:56;99954.81;;;31.73;46.73
13124;BME280;6627;50.920;12.050;2023-08-21T04:36:24;99989.66;;;32.13;45.93
13124;BME280;6627;50.920;12.050;2023-08-21T04:38:51;99971.81;;;32.34;45.64
13124;BME280;6627;50.920;12.050;2023-08-21T04:41:19;99927.84;;;31.49;46.30
13124;BME280;6627;50.920;12.050;2023-08-21T04:43:46;99970.06;;;31.69;46.26
13124;BME280;6627;50.920;12.050;2023-08-21T04:46:13;99950.59;;;31.99;45.30
13124;BME280;6627;50.920;12.050;2023-08-21T04:48:42;99924.59;;;31.02;46.94
13124;BME280;6627;50.920;12.050;2023-08-21T04:51:10;99998.03;;;31.76;46.67
13124;BME280;6627;50.920;12.050;2023-08-21T04:53:37;99946.72;;;30.78;47.92
13124;BME280;6627;50.920;12.050;2023-08-21T04:56:05;99992.63;;;30.88;48.44
13124;BME280;6627;50.920;12.050;2023-08-21T04:58:32;99984.50;;;31.67;46.74
13124;BME280;6627;50.920;12.050;2023-08-21T05:00:59;99999.53;;;31.87;46.51
13124;BME280;6627;50.920;12.050;2023-08-21T05:03:27;99961.34;;;31.59;46.50
13124;BME280;6627;50.920;12.050;2023-08-21T05:05:56;99976.66;;;31.48;47.08
13124;BME280;6627;50.920;12.050;2023-08-21T05:08:25;99982.38;;;31.33;47.35
13124;BME280;6627;50.920;12.050;2023-08-21T05:10:56;99972.00;;;31.30;47.17
13124;BME280;6627;50.920;12.050;2023-08-21T05:13:23;99963.03;;;31.95;46.31
13124;BME280;6627;50.920;12.050;2023-08-21T05:15:52;100014.03;;;31.79;47.09
13124;BME280;6627;50.920;12.050;2023-08-21T05:18:20;100006.91;;;31.67;47.08
13124;BME280;6627;50.920;12.050;2023-08-21T05:20:48;100038.97;;;32.11;46.96
13124;BME280;6627;50.920;12.050;2023-08-21T05:23:17;99970.00;;;31.79;46.33
13124;BME280;6627;50.920;12.050;2023-08-21T05:25:46;100011.91;;;31.42;48.09
13124;BME280;6627;50.920;12.050;2023-08-21T05:28:15;100045.69;;;31.13;48.76
13124;BME280;6627;50.920;12.050;2023-08-21T05:30:42;100078.69;;;32.81;46.49
13124;BME280;6627;50.920;12.050;2023-08-21T05:33:11;100038.22;;;32.45;46.48
13124;BME280;6627;50.920;12.050;2023-08-21T05:35:38;100018.25;;;31.53;48.05
13124;BME280;6627;50.920;12.050;2023-08-21T05:38:06;100065.44;;;31.54;48.33
13124;BME280;6627;50.920;12.050;2023-08-21T05:40:35;100042.84;;;31.79;47.57
13124;BME280;6627;50.920;12.050;2023-08-21T05:43:03;100066.69;;;32.47;46.33
13124;BME280;6627;50.920;12.050;2023-08-21T05:45:30;100073.56;;;31.94;47.45
13124;BME280;6627;50.920;12.050;2023-08-21T05:47:59;100053.81;;;32.08;47.06
13124;BME280;6627;50.920;12.050;2023-08-21T05:50:27;100019.66;;;31.75;47.05
13124;BME280;6627;50.920;12.050;2023-08-21T05:52:54;100077.66;;;32.27;46.93
13124;BME280;6627;50.920;12.050;2023-08-21T05:55:24;100019.47;;;30.78;49.54
13124;BME280;6627;50.920;12.050;2023-08-21T05:57:53;100085.59;;;31.31;49.33
13124;BME280;6627;50.920;12.050;2023-08-21T06:00:20;100099.03;;;32.58;47.27
13124;BME280;6627;50.920;12.050;2023-08-21T06:02:48;100122.91;;;32.70;47.04
13124;BME280;6627;50.920;12.050;2023-08-21T06:05:15;100155.69;;;33.49;45.94
13124;BME280;6627;50.920;12.050;2023-08-21T06:07:42;100135.88;;;32.57;47.77
13124;BME280;6627;50.920;12.050;2023-08-21T06:10:10;100068.16;;;32.13;47.92
13124;BME280;6627;50.920;12.050;2023-08-21T06:12:39;100122.72;;;32.92;47.03
13124;BME280;6627;50.920;12.050;2023-08-21T06:15:10;100085.56;;;33.11;45.85
13124;BME280;6627;50.920;12.050;2023-08-21T06:17:38;100085.63;;;32.32;46.86
13124;BME280;6627;50.920;12.050;2023-08-21T06:20:06;100113.56;;;32.80;46.83
13124;BME280;6627;50.920;12.050;2023-08-21T06:22:35;100149.78;;;33.09;46.92
13124;BME280;6627;50.920;12.050;2023-08-21T06:25:03;100099.06;;;32.55;47.03
13124;BME280;6627;50.920;12.050;2023-08-21T06:27:30;100143.63;;;32.83;47.32
13124;BME280;6627;50.920;12.050;2023-08-21T06:29:58;100128.59;;;33.01;46.83
13124;BME280;6627;50.920;12.050;2023-08-21T06:32:26;100113.59;;;32.43;48.07
13124;BME280;6627;50.920;12.050;2023-08-21T06:34:54;100190.31;;;33.08;47.94
13124;BME280;6627;50.920;12.050;2023-08-21T06:37:21;100113.34;;;33.32;46.51
13124;BME280;6627;50.920;12.050;2023-08-21T06:39:49;100103.91;;;33.19;46.02
13124;BME280;6627;50.920;12.050;2023-08-21T06:42:17;100174.59;;;33.75;46.41
13124;BME280;6627;50.920;12.050;2023-08-21T06:44:44;100206.13;;;33.59;47.26
13124;BME280;6627;50.920;12.050;2023-08-21T06:47:13;100178.47;;;34.12;45.70
13124;BME280;6627;50.920;12.050;2023-08-21T06:49:42;100106.81;;;33.97;45.25
13124;BME280;6627;50.920;12.050;2023-08-21T06:52:09;100120.22;;;33.85;45.19
13124;BME280;6627;50.920;12.050;2023-08-21T06:54:37;100144.28;;;33.86;45.45
13124;BME280;6627;50.920;12.050;2023-08-21T06:57:04;100189.53;;;34.50;44.99
13124;BME280;6627;50.920;12.050;2023-08-21T06:59:32;100161.91;;;35.08;43.57
13124;BME280;6627;50.920;12.050;2023-08-21T07:02:02;100110.44;;;33.70;45.28
13124;BME280;6627;50.920;12.050;2023-08-21T07:04:29;100131.75;;;33.37;46.27
13124;BME280;6627;50.920;12.050;2023-08-21T07:06:58;100133.72;;;33.71;45.47
13124;BME280;6627;50.920;12.050;2023-08-21T07:09:25;100172.50;;;34.10;45.35
13124;BME280;6627;50.920;12.050;2023-08-21T07:11:53;100157.44;;;33.97;45.09
13124;BME280;6627;50.920;12.050;2023-08-21T07:14:20;100171.50;;;34.20;44.98
13124;BME280;6627;50.920;12.050;2023-08-21T07:16:47;100191.00;;;34.58;44.60
13124;BME280;6627;50.920;12.050;2023-08-21T07:19:15;100158.81;;;34.59;44.17
13124;BME280;6627;50.920;12.050;2023-08-21T07:21:43;100170.53;;;34.30;44.80
13124;BME280;6627;50.920;12.050;2023-08-21T07:24:12;100117.94;;;34.51;43.61
13124;BME280;6627;50.920;12.050;2023-08-21T07:26:39;100105.38;;;34.75;42.84
13124;BME280;6627;50.920;12.050;2023-08-21T07:29:07;100169.84;;;35.13;43.21
13124;BME280;6627;50.920;12.050;2023-08-21T07:31:34;100128.38;;;34.94;42.62
13124;BME280;6627;50.920;12.050;2023-08-21T07:34:02;100135.88;;;34.80;43.24
13124;BME280;6627;50.920;12.050;2023-08-21T07:36:31;100074.56;;;34.48;42.79
13124;BME280;6627;50.920;12.050;2023-08-21T07:38:58;100043.81;;;34.57;42.04
13124;BME280;6627;50.920;12.050;2023-08-21T07:41:46;100093.66;;;34.80;41.98
13124;BME280;6627;50.920;12.050;2023-08-21T07:44:14;100089.53;;;35.05;42.02
13124;BME280;6627;50.920;12.050;2023-08-21T07:46:42;100117.34;;;36.24;39.94
13124;BME280;6627;50.920;12.050;2023-08-21T07:49:09;100026.84;;;36.02;39.06
13124;BME280;6627;50.920;12.050;2023-08-21T07:51:37;100075.72;;;36.45;39.17
13124;BME280;6627;50.920;12.050;2023-08-21T07:54:07;100082.03;;;36.78;39.04
13124;BME280;6627;50.920;12.050;2023-08-21T07:56:34;99988.09;;;35.74;39.24
13124;BME280;6627;50.920;12.050;2023-08-21T07:59:03;100002.19;;;35.57;40.02
13124;BME280;6627;50.920;12.050;2023-08-21T08:01:30;100062.63;;;36.51;38.88
13124;BME280;6627;50.920;12.050;2023-08-21T08:03:59;99975.28;;;35.36;39.59
13124;BME280;6627;50.920;12.050;2023-08-21T08:06:26;99997.25;;;35.61;39.62
13124;BME280;6627;50.920;12.050;2023-08-21T08:08:54;100060.22;;;37.20;37.58
13124;BME280;6627;50.920;12.050;2023-08-21T08:11:21;99978.75;;;36.64;37.59
13124;BME280;6627;50.920;12.050;2023-08-21T08:13:48;99948.72;;;37.34;36.16
13124;BME280;6627;50.920;12.050;2023-08-21T08:16:17;99937.53;;;36.54;37.75
13124;BME280;6627;50.920;12.050;2023-08-21T08:18:44;100054.31;;;38.39;35.55
13124;BME280;6627;50.920;12.050;2023-08-21T08:21:13;99890.06;;;37.25;35.74
13124;BME280;6627;50.920;12.050;2023-08-21T08:23:40;99927.84;;;37.66;35.18
13124;BME280;6627;50.920;12.050;2023-08-21T08:26:08;99914.50;;;37.19;36.63
13124;BME280;6627;50.920;12.050;2023-08-21T08:28:35;100036.88;;;38.27;35.69
13124;BME280;6627;50.920;12.050;2023-08-21T08:31:03;100086.44;;;39.42;34.71
13124;BME280;6627;50.920;12.050;2023-08-21T08:33:47;100029.72;;;39.42;33.72
13124;BME280;6627;50.920;12.050;2023-08-21T08:36:15;99865.41;;;37.39;35.62
13124;BME280;6627;50.920;12.050;2023-08-21T08:38:43;99905.91;;;37.10;36.97
13124;BME280;6627;50.920;12.050;2023-08-21T08:41:19;99983.69;;;38.22;35.90
13124;BME280;6627;50.920;12.050;2023-08-21T08:44:07;99902.13;;;38.08;34.55
13124;BME280;6627;50.920;12.050;2023-08-21T08:46:39;100024.34;;;39.03;34.67
13124;BME280;6627;50.920;12.050;2023-08-21T08:49:10;99999.72;;;38.69;35.00
13124;BME280;6627;50.920;12.050;2023-08-21T08:51:42;100038.16;;;39.23;34.25
13124;BME280;6627;50.920;12.050;2023-08-21T08:54:12;99789.53;;;36.90;34.99
13124;BME280;6627;50.920;12.050;2023-08-21T08:56:40;99899.53;;;37.44;35.41
13124;BME280;6627;50.920;12.050;2023-08-21T08:59:08;99819.50;;;36.23;36.21
13124;BME280;6627;50.920;12.050;2023-08-21T09:01:38;99887.28;;;36.74;36.14
13124;BME280;6627;50.920;12.050;2023-08-21T09:04:05;100048.31;;;38.80;34.89
13124;BME280;6627;50.920;12.050;2023-08-21T09:06:34;99784.16;;;37.74;33.32
13124;BME280;6627;50.920;12.050;2023-08-21T09:09:02;99947.19;;;39.08;33.58
13124;BME280;6627;50.920;12.050;2023-08-21T09:11:29;99823.75;;;37.17;35.35
13124;BME280;6627;50.920;12.050;2023-08-21T09:13:58;99984.59;;;38.63;34.43
13124;BME280;6627;50.920;12.050;2023-08-21T09:16:26;99991.66;;;39.70;32.98
13124;BME280;6627;50.920;12.050;2023-08-21T09:18:56;99965.09;;;39.27;33.35
13124;BME280;6627;50.920;12.050;2023-08-21T09:21:25;99915.94;;;39.21;32.88
13124;BME280;6627;50.920;12.050;2023-08-21T09:24:00;99855.47;;;38.75;32.85
13124;BME280;6627;50.920;12.050;2023-08-21T09:26:31;99879.28;;;38.86;32.74
13124;BME280;6627;50.920;12.050;2023-08-21T09:29:03;99888.03;;;38.70;33.32
13124;BME280;6627;50.920;12.050;2023-08-21T09:31:32;99851.88;;;38.43;33.61
13124;BME280;6627;50.920;12.050;2023-08-21T09:34:02;99881.81;;;38.84;33.16
13124;BME280;6627;50.920;12.050;2023-08-21T09:36:31;99927.94;;;38.63;34.31
13124;BME280;6627;50.920;12.050;2023-08-21T09:39:01;99775.50;;;37.68;34.20
13124;BME280;6627;50.920;12.050;2023-08-21T09:41:29;99872.44;;;38.66;33.53
13124;BME280;6627;50.920;12.050;2023-08-21T09:43:59;99870.06;;;38.33;33.62
13124;BME280;6627;50.920;12.050;2023-08-21T09:46:28;99862.41;;;38.21;34.04
13124;BME280;6627;50.920;12.050;2023-08-21T09:48:55;99932.56;;;38.70;34.11
13124;BME280;6627;50.920;12.050;2023-08-21T09:51:23;99915.97;;;38.59;34.07
13124;BME280;6627;50.920;12.050;2023-08-21T09:53:51;99838.25;;;38.60;33.69
13124;BME280;6627;50.920;12.050;2023-08-21T09:56:24;99944.94;;;38.63;34.14
13124;BME280;6627;50.920;12.050;2023-08-21T09:58:52;99902.09;;;39.23;32.81
13124;BME280;6627;50.920;12.050;2023-08-21T10:01:21;99963.94;;;39.16;34.78
13124;BME280;6627;50.920;12.050;2023-08-21T10:03:49;99851.31;;;39.07;33.10
13124;BME280;6627;50.920;12.050;2023-08-21T10:06:17;99764.69;;;37.54;34.36
13124;BME280;6627;50.920;12.050;2023-08-21T10:08:47;99929.22;;;38.62;34.24
13124;BME280;6627;50.920;12.050;2023-08-21T10:11:21;99844.69;;;38.29;34.31
13124;BME280;6627;50.920;12.050;2023-08-21T10:13:52;99842.31;;;37.97;34.70
13124;BME280;6627;50.920;12.050;2023-08-21T10:16:20;99934.19;;;38.05;36.08
13124;BME280;6627;50.920;12.050;2023-08-21T10:18:48;99833.06;;;38.27;34.22
13124;BME280;6627;50.920;12.050;2023-08-21T10:21:18;99925.59;;;38.93;34.19
13124;BME280;6627;50.920;12.050;2023-08-21T10:23:47;99937.72;;;39.52;33.28
13124;BME280;6627;50.920;12.050;2023-08-21T10:26:18;99764.41;;;37.83;33.71
13124;BME280;6627;50.920;12.050;2023-08-21T10:28:51;99940.69;;;38.90;34.21
13124;BME280;6627;50.920;12.050;2023-08-21T10:31:26;99802.19;;;37.89;34.08
13124;BME280;6627;50.920;12.050;2023-08-21T10:33:54;99856.97;;;38.98;32.92
13124;BME280;6627;50.920;12.050;2023-08-21T10:39:37;99905.22;;;39.25;33.47
13124;BME280;6627;50.920;12.050;2023-08-21T10:42:12;99881.16;;;38.80;33.85
13124;BME280;6627;50.920;12.050;2023-08-21T10:44:52;99874.16;;;38.72;33.86
13124;BME280;6627;50.920;12.050;2023-08-21T10:47:32;99952.38;;;40.51;31.95
13124;BME280;6627;50.920;12.050;2023-08-21T10:50:20;99875.84;;;39.69;32.33
13124;BME280;6627;50.920;12.050;2023-08-21T10:52:51;99932.94;;;40.59;31.50
13124;BME280;6627;50.920;12.050;2023-08-21T10:55:20;99822.34;;;40.04;31.35
13124;BME280;6627;50.920;12.050;2023-08-21T10:57:49;99838.41;;;40.07;31.68
13124;BME280;6627;50.920;12.050;2023-08-21T11:00:19;99967.25;;;41.31;31.41
13124;BME280;6627;50.920;12.050;2023-08-21T11:02:49;99708.00;;;39.52;31.32
13124;BME280;6627;50.920;12.050;2023-08-21T11:05:16;99942.59;;;40.95;31.70
13124;BME280;6627;50.920;12.050;2023-08-21T11:07:47;99702.34;;;39.43;31.48
13124;BME280;6627;50.920;12.050;2023-08-21T11:10:17;99768.47;;;38.84;32.54
13124;BME280;6627;50.920;12.050;2023-08-21T11:12:49;99795.63;;;39.68;31.47
13124;BME280;6627;50.920;12.050;2023-08-21T11:15:19;99677.91;;;38.35;32.78
13124;BME280;6627;50.920;12.050;2023-08-21T11:17:58;99856.56;;;40.09;31.70
13124;BME280;6627;50.920;12.050;2023-08-21T11:20:30;99807.41;;;39.21;32.65
13124;BME280;6627;50.920;12.050;2023-08-21T11:22:58;99813.44;;;39.32;32.68
13124;BME280;6627;50.920;12.050;2023-08-21T11:25:27;99843.16;;;40.10;31.81
13124;BME280;6627;50.920;12.050;2023-08-21T11:27:56;99752.44;;;39.18;32.11
13124;BME280;6627;50.920;12.050;2023-08-21T11:30:25;99782.59;;;40.04;31.17
13124;BME280;6627;50.920;12.050;2023-08-21T11:33:06;99832.22;;;40.69;30.82
13124;BME280;6627;50.920;12.050;2023-08-21T11:35:34;99725.06;;;38.88;32.40
13124;BME280;6627;50.920;12.050;2023-08-21T11:38:02;99829.22;;;40.30;31.10
13124;BME280;6627;50.920;12.050;2023-08-21T11:40:34;99727.03;;;39.60;31.29
13124;BME280;6627;50.920;12.050;2023-08-21T11:43:02;99802.84;;;39.51;32.03
13124;BME280;6627;50.920;12.050;2023-08-21T11:45:32;99781.63;;;40.49;30.35
13124;BME280;6627;50.920;12.050;2023-08-21T11:48:00;99878.72;;;40.81;31.10
13124;BME280;6627;50.920;12.050;2023-08-21T11:50:29;99768.75;;;39.88;31.53
13124;BME280;6627;50.920;12.050;2023-08-21T11:52:56;99923.53;;;41.91;30.10
13124;BME280;6627;50.920;12.050;2023-08-21T11:55:23;99818.41;;;40.53;31.29
13124;BME280;6627;50.920;12.050;2023-08-21T11:57:52;99892.53;;;42.08;29.62
13124;BME280;6627;50.920;12.050;2023-08-21T12:00:27;99793.56;;;40.96;30.21
13124;BME280;6627;50.920;12.050;2023-08-21T12:02:58;99948.13;;;41.31;32.67
13124;BME280;6627;50.920;12.050;2023-08-21T12:05:27;99934.88;;;42.74;29.00
13124;BME280;6627;50.920;12.050;2023-08-21T12:07:55;99910.06;;;41.92;31.50
13124;BME280;6627;50.920;12.050;2023-08-21T12:10:24;99855.78;;;41.80;29.54
13124;BME280;6627;50.920;12.050;2023-08-21T12:12:51;99790.00;;;41.78;29.00
13124;BME280;6627;50.920;12.050;2023-08-21T12:15:20;99757.53;;;40.69;30.85
13124;BME280;6627;50.920;12.050;2023-08-21T12:17:47;99838.69;;;40.94;30.66
13124;BME280;6627;50.920;12.050;2023-08-21T12:20:16;99888.59;;;42.65;28.77
13124;BME280;6627;50.920;12.050;2023-08-21T12:22:46;99785.31;;;41.90;29.30
13124;BME280;6627;50.920;12.050;2023-08-21T12:25:14;99711.88;;;40.57;29.99
13124;BME280;6627;50.920;12.050;2023-08-21T12:27:42;99791.34;;;40.91;30.49
13124;BME280;6627;50.920;12.050;2023-08-21T12:30:16;99664.94;;;40.05;30.79
13124;BME280;6627;50.920;12.050;2023-08-21T12:32:44;99767.22;;;40.62;30.69
13124;BME280;6627;50.920;12.050;2023-08-21T12:35:32;99643.78;;;39.21;31.62
13124;BME280;6627;50.920;12.050;2023-08-21T12:38:00;99903.72;;;42.12;29.65
13124;BME280;6627;50.920;12.050;2023-08-21T12:40:32;99920.53;;;41.71;31.21
13124;BME280;6627;50.920;12.050;2023-08-21T12:43:08;99814.31;;;41.65;29.99
13124;BME280;6627;50.920;12.050;2023-08-21T12:45:37;99820.44;;;42.17;28.91
13124;BME280;6627;50.920;12.050;2023-08-21T12:48:04;99757.94;;;41.24;29.84
13124;BME280;6627;50.920;12.050;2023-08-21T12:50:33;99780.88;;;41.45;29.22
13124;BME280;6627;50.920;12.050;2023-08-21T12:53:16;99776.13;;;41.03;30.63
13124;BME280;6627;50.920;12.050;2023-08-21T12:55:43;99722.03;;;41.12;29.48
13124;BME280;6627;50.920;12.050;2023-08-21T12:58:11;99785.41;;;41.27;30.24
13124;BME280;6627;50.920;12.050;2023-08-21T13:00:39;99761.69;;;40.34;31.91
13124;BME280;6627;50.920;12.050;2023-08-21T13:03:07;99750.59;;;40.94;30.74
13124;BME280;6627;50.920;12.050;2023-08-21T13:05:37;99741.53;;;40.56;30.70
13124;BME280;6627;50.920;12.050;2023-08-21T13:08:05;99784.81;;;41.23;30.45
13124;BME280;6627;50.920;12.050;2023-08-21T13:10:32;99672.25;;;41.31;28.68